Terminal Aerodrome Forecast
Issued by NWS Louisville, KY

Home | Current Version | Previous Version | Text Only | Print | Product List | Glossary On
Versions: 1 2 3 4 5 6 7 8 9 10 11 12 13 14 15 16 17 18 19 20
000
FTUS43 KLMK 301339 AAA
TAFLEX
TAF AMD
KLEX 301339Z 3014/0112 VRB04KT 3SM BR BKN003
     FM301600 23004KT P6SM BKN010
     FM301900 22005KT P6SM BKN025
     FM010000 VRB04KT P6SM BKN035=

USA.gov is the U.S. government's official web portal to all federal, state and local government web resources and services.